Time;durP1;ratioP1;P1;durP2;ratioP2;P2;SDS_P1;SDS_P2;PMS_P1;PMS_P2;Temp;Humidity;BMP_temperature;BMP_pressure;BME280_temperature;BME280_humidity;BME280_pressure;Samples;Min_cycle;Max_cycle;Signal;HPM_P1;HPM_P2
2023/08/07 00:00:15;;;;;;;12.10;3.40;;;;;;;11.91;100.00;101249.63;6161849;23;20328;-72
2023/08/07 00:02:40;;;;;;;9.48;3.28;;;;;;;11.94;100.00;101245.25;6159974;23;20326;-71
2023/08/07 00:05:06;;;;;;;12.13;2.90;;;;;;;11.96;100.00;101247.84;6186961;23;20008;-72
2023/08/07 00:07:31;;;;;;;9.75;3.30;;;;;;;11.96;100.00;101243.47;6138145;23;20013;-71
2023/08/07 00:09:57;;;;;;;13.57;3.33;;;;;;;11.97;100.00;101249.59;6138081;23;20036;-71
2023/08/07 00:12:22;;;;;;;9.18;2.47;;;;;;;11.96;100.00;101245.22;6162222;23;20091;-70
2023/08/07 00:14:50;;;;;;;7.65;2.50;;;;;;;11.98;100.00;101238.19;6187527;23;20364;-71
2023/08/07 00:17:16;;;;;;;9.38;2.50;;;;;;;11.97;100.00;101246.97;6185564;23;20390;-71
2023/08/07 00:19:41;;;;;;;10.35;2.80;;;;;;;11.99;100.00;101245.19;6162230;23;20012;-71
2023/08/07 00:22:06;;;;;;;8.30;2.67;;;;;;;11.96;100.00;101243.47;6164267;23;20013;-71
2023/08/07 00:24:32;;;;;;;14.65;3.40;;;;;;;11.97;100.00;101239.09;6188577;23;20111;-71
2023/08/07 00:26:57;;;;;;;10.40;2.70;;;;;;;11.98;100.00;101251.31;6163551;23;20009;-71
2023/08/07 00:29:23;;;;;;;10.77;2.80;;;;;;;11.97;100.00;101244.34;6139342;23;20013;-71
2023/08/07 00:31:48;;;;;;;12.10;3.25;;;;;;;11.96;100.00;101242.59;6138737;23;20024;-71
2023/08/07 00:34:14;;;;;;;10.90;2.70;;;;;;;11.96;100.00;101248.72;6138643;23;20012;-71
2023/08/07 00:36:39;;;;;;;10.50;2.92;;;;;;;11.96;100.00;101247.84;6189180;23;20008;-72
2023/08/07 00:39:05;;;;;;;11.48;2.83;;;;;;;11.96;100.00;101253.09;6139442;23;20005;-71
2023/08/07 00:41:30;;;;;;;7.00;2.60;;;;;;;11.96;100.00;101255.75;6189003;23;20016;-71
2023/08/07 00:43:55;;;;;;;9.10;2.80;;;;;;;11.95;100.00;101254.00;6139462;23;20087;-71
2023/08/07 00:46:21;;;;;;;8.50;2.75;;;;;;;11.95;100.00;101248.72;6187435;23;20056;-72
2023/08/07 00:48:47;;;;;;;9.48;2.53;;;;;;;11.94;100.00;101252.28;6187792;23;20015;-71
2023/08/07 00:51:13;;;;;;;10.35;3.03;;;;;;;11.93;100.00;101240.88;6164147;23;20012;-71
2023/08/07 00:53:39;;;;;;;7.35;2.80;;;;;;;11.96;100.00;101253.97;6188669;23;20004;-72
2023/08/07 00:56:05;;;;;;;10.05;3.05;;;;;;;11.97;100.00;101249.59;6188638;23;20366;-72
2023/08/07 00:58:31;;;;;;;11.73;3.10;;;;;;;11.96;100.00;101253.09;6188421;23;20351;-70
2023/08/07 01:00:58;;;;;;;9.70;3.08;;;;;;;11.96;100.00;101247.84;6188020;23;20023;-72
2023/08/07 01:03:23;;;;;;;16.08;2.80;;;;;;;11.96;100.00;101253.09;6187307;23;20386;-71
2023/08/07 01:05:49;;;;;;;10.45;2.92;;;;;;;11.94;100.00;101252.28;6188602;23;20015;-71
2023/08/07 01:08:14;;;;;;;8.45;3.10;;;;;;;11.95;100.00;101261.88;6188799;23;20335;-72
2023/08/07 01:11:11;;;;;;;11.93;3.30;;;;;;;11.95;100.00;101257.50;6163792;23;20312;-71
2023/08/07 01:13:49;;;;;;;12.30;3.35;;;;;;;11.95;100.00;101254.00;6188457;23;20016;-71
2023/08/07 01:42:00;;;;;;;11.32;3.20;;;;;;;11.93;100.00;101258.38;6197600;23;20024;-69
2023/08/07 02:14:31;;;;;;;10.15;3.22;;;;;;;11.97;100.00;101291.63;6219438;23;20018;-69
2023/08/07 02:17:15;;;;;;;9.00;2.92;;;;;;;12.03;100.00;101296.81;6193854;23;20051;-69
2023/08/07 02:19:40;;;;;;;10.50;3.80;;;;;;;12.00;100.00;101296.00;6218517;23;20014;-69
2023/08/07 02:22:06;;;;;;;10.23;3.50;;;;;;;11.99;100.00;101297.72;6193723;23;20016;-69
2023/08/07 02:24:31;;;;;;;9.27;2.97;;;;;;;11.95;100.00;101296.00;6168949;23;20016;-69
2023/08/07 02:26:57;;;;;;;10.30;3.35;;;;;;;11.97;100.00;101307.38;6168114;23;20039;-69
2023/08/07 02:29:23;;;;;;;9.50;3.08;;;;;;;11.95;100.00;101293.38;6168319;23;20036;-69
2023/08/07 02:31:48;;;;;;;10.27;3.35;;;;;;;11.95;100.00;101296.00;6192983;23;20453;-69
2023/08/07 02:34:14;;;;;;;10.63;3.92;;;;;;;11.93;100.00;101295.13;6166864;23;20016;-69
2023/08/07 02:36:39;;;;;;;11.05;3.38;;;;;;;11.95;100.00;101298.63;6167840;23;20020;-70
2023/08/07 02:39:04;;;;;;;11.15;3.85;;;;;;;11.93;100.00;101297.75;6167775;23;20008;-69
2023/08/07 02:41:31;;;;;;;10.70;3.90;;;;;;;11.96;100.00;101305.63;6167953;23;20013;-69
2023/08/07 02:43:57;;;;;;;10.82;3.55;;;;;;;11.93;100.00;101295.13;6192801;23;20338;-69
2023/08/07 02:46:22;;;;;;;10.05;3.22;;;;;;;11.92;100.00;101293.38;6192333;23;20008;-69
2023/08/07 02:48:48;;;;;;;11.13;4.13;;;;;;;11.92;100.00;101296.91;6191554;23;20012;-70
2023/08/07 02:51:13;;;;;;;13.85;3.88;;;;;;;11.93;100.00;101300.38;6192797;23;20379;-69
2023/08/07 02:53:39;;;;;;;11.10;3.78;;;;;;;11.94;100.00;101302.16;6168054;23;20111;-69
2023/08/07 02:56:04;;;;;;;11.88;4.07;;;;;;;11.95;100.00;101303.88;6192878;23;20008;-69
2023/08/07 02:58:30;;;;;;;9.65;3.55;;;;;;;11.95;100.00;101307.41;6217751;23;20018;-69
2023/08/07 03:00:55;;;;;;;10.15;3.30;;;;;;;11.97;100.00;101294.25;6166933;23;20012;-69
2023/08/07 03:03:20;;;;;;;9.88;3.38;;;;;;;11.98;100.00;101303.84;6190595;23;20083;-69
2023/08/07 03:05:50;;;;;;;15.07;3.90;;;;;;;11.95;100.00;101309.13;6192201;23;20395;-69
2023/08/07 03:08:16;;;;;;;17.50;4.20;;;;;;;11.96;100.00;101306.50;6216378;23;20054;-69
2023/08/07 03:10:41;;;;;;;8.95;3.95;;;;;;;11.98;100.00;101303.84;6167817;23;20020;-69
2023/08/07 03:13:06;;;;;;;13.57;3.45;;;;;;;11.97;100.00;101299.50;6192451;23;20046;-69
2023/08/07 03:15:32;;;;;;;12.75;4.00;;;;;;;11.99;100.00;101305.59;6192275;23;20377;-69
2023/08/07 03:17:57;;;;;;;13.95;3.63;;;;;;;11.98;100.00;101293.34;6190354;23;20066;-69
2023/08/07 03:20:23;;;;;;;12.60;3.35;;;;;;;11.98;100.00;101295.97;6167476;23;20012;-69
2023/08/07 03:22:48;;;;;;;13.75;4.15;;;;;;;11.97;100.00;101286.38;6192446;23;20020;-69
2023/08/07 03:25:14;;;;;;;14.95;4.15;;;;;;;11.98;100.00;101288.09;6217677;23;20138;-69
2023/08/07 03:27:39;;;;;;;10.85;3.63;;;;;;;11.98;100.00;101288.09;6217340;23;20038;-69
2023/08/07 03:30:05;;;;;;;11.25;3.70;;;;;;;12.03;100.00;101295.94;6167497;23;20004;-69
2023/08/07 03:32:30;;;;;;;13.32;3.30;;;;;;;12.01;100.00;101288.09;6190996;23;20050;-69
2023/08/07 03:34:56;;;;;;;14.65;3.50;;;;;;;12.00;100.00;101281.09;6166997;23;20012;-69
2023/08/07 03:37:22;;;;;;;10.60;3.42;;;;;;;12.02;100.00;101289.81;6167534;23;20019;-69
2023/08/07 03:39:48;;;;;;;11.43;3.67;;;;;;;12.00;100.00;101275.84;6243807;23;20004;-69
2023/08/07 03:42:15;;;;;;;12.35;4.20;;;;;;;11.99;100.00;101284.59;6167542;23;20488;-69
2023/08/07 03:44:40;;;;;;;11.73;3.53;;;;;;;12.00;100.00;101286.34;6192441;23;20511;-69
2023/08/07 03:47:08;;;;;;;11.00;3.58;;;;;;;11.99;100.00;101284.59;6192285;23;20115;-69
2023/08/07 03:49:33;;;;;;;9.93;3.80;;;;;;;11.98;100.00;101287.22;6215240;23;20008;-69
2023/08/07 03:51:59;;;;;;;12.43;4.53;;;;;;;11.99;100.00;101284.59;6164832;23;20563;-69
2023/08/07 03:54:25;;;;;;;10.63;3.92;;;;;;;11.96;100.00;101285.47;6192518;23;20095;-69
2023/08/07 03:56:51;;;;;;;11.57;3.75;;;;;;;11.96;100.00;101285.47;6169868;23;20410;-69
2023/08/07 03:59:17;;;;;;;13.18;4.18;;;;;;;11.98;100.00;101285.47;6194315;23;20059;-69
2023/08/07 04:01:43;;;;;;;11.07;3.88;;;;;;;12.00;100.00;101285.47;6169158;23;20015;-69
2023/08/07 04:04:08;;;;;;;11.10;4.05;;;;;;;12.00;100.00;101286.34;6168189;23;20008;-69
2023/08/07 04:06:34;;;;;;;11.88;3.80;;;;;;;12.02;100.00;101289.81;6245776;23;20004;-69
2023/08/07 04:08:59;;;;;;;12.60;4.20;;;;;;;12.04;100.00;101295.94;6193589;23;20038;-69
2023/08/07 04:11:26;;;;;;;14.15;4.13;;;;;;;12.04;100.00;101287.16;6169548;23;20031;-69
2023/08/07 04:13:51;;;;;;;10.93;4.07;;;;;;;12.04;100.00;101287.16;6169554;23;20032;-69
2023/08/07 04:16:17;;;;;;;10.23;4.15;;;;;;;12.04;100.00;101292.41;6168898;23;20011;-69
2023/08/07 04:18:43;;;;;;;13.77;3.55;;;;;;;12.04;100.00;101288.06;6192943;23;20095;-69
2023/08/07 04:21:08;;;;;;;11.23;3.60;;;;;;;12.06;100.00;101288.88;6194273;23;20043;-69
2023/08/07 04:23:34;;;;;;;11.00;3.88;;;;;;;12.06;100.00;101282.78;6168530;23;20286;-69
2023/08/07 04:25:59;;;;;;;11.77;3.53;;;;;;;12.09;100.00;101298.50;6218799;23;20068;-69
2023/08/07 04:28:27;;;;;;;12.10;3.72;;;;;;;12.10;100.00;101282.72;6192241;23;20400;-69
2023/08/07 04:30:53;;;;;;;11.13;3.45;;;;;;;12.09;99.68;101291.47;6218522;23;20066;-69
2023/08/07 04:33:22;;;;;;;11.63;3.38;;;;;;;12.12;100.00;101291.47;6193225;23;20012;-70
2023/08/07 04:35:47;;;;;;;13.68;3.53;;;;;;;12.11;100.00;101294.97;6192917;23;20008;-70
2023/08/07 04:38:14;;;;;;;10.80;3.28;;;;;;;12.13;100.00;101297.59;6167056;23;20453;-69
2023/08/07 04:40:47;;;;;;;9.23;3.65;;;;;;;12.12;100.00;101307.22;6193322;23;20445;-69
2023/08/07 04:43:14;;;;;;;8.82;3.13;;;;;;;12.12;100.00;101306.34;6246139;23;20099;-69
2023/08/07 04:45:40;;;;;;;9.88;3.10;;;;;;;12.13;100.00;101310.72;6217777;23;20099;-69
2023/08/07 04:48:07;;;;;;;11.85;3.47;;;;;;;12.16;100.00;101310.69;6167894;23;20043;-69
2023/08/07 04:50:32;;;;;;;9.13;3.15;;;;;;;12.16;100.00;101312.44;6192452;23;20012;-69
2023/08/07 04:52:58;;;;;;;10.45;3.35;;;;;;;12.18;100.00;101298.38;6169017;23;20019;-70
2023/08/07 04:55:23;;;;;;;12.55;3.58;;;;;;;12.21;100.00;101305.38;6169077;23;20012;-70
2023/08/07 04:57:54;;;;;;;12.48;3.63;;;;;;;12.19;100.00;101301.91;6245156;23;20313;-70
2023/08/07 05:00:20;;;;;;;11.85;3.78;;;;;;;12.20;100.00;101312.41;6193781;23;20012;-69
2023/08/07 05:02:47;;;;;;;9.70;3.30;;;;;;;12.23;100.00;101311.50;6191870;23;20015;-72
2023/08/07 05:05:14;;;;;;;8.75;2.83;;;;;;;12.20;100.00;101304.50;6218138;23;20340;-73
2023/08/07 05:07:40;;;;;;;11.82;3.50;;;;;;;12.28;100.00;101318.44;6193174;23;20339;-69
2023/08/07 05:10:06;;;;;;;10.15;3.20;;;;;;;12.25;100.00;101307.94;6218833;23;20438;-70
2023/08/07 05:12:32;;;;;;;8.40;3.13;;;;;;;12.25;100.00;101307.94;6193877;23;20027;-70
2023/08/07 05:14:57;;;;;;;7.75;2.83;;;;;;;12.29;99.96;101312.28;6194004;23;20044;-70
2023/08/07 05:17:23;;;;;;;8.60;2.97;;;;;;;12.32;99.55;101313.16;6217449;23;20008;-72
2023/08/07 05:19:48;;;;;;;7.40;2.78;;;;;;;12.30;99.70;101315.78;6193549;23;20008;-72
2023/08/07 05:22:13;;;;;;;11.73;2.88;;;;;;;12.35;100.00;101329.72;6193555;23;20283;-72
2023/08/07 05:24:39;;;;;;;8.00;2.97;;;;;;;12.38;100.00;101334.94;6168990;23;20414;-72
2023/08/07 05:27:08;;;;;;;9.63;2.72;;;;;;;12.34;99.98;101327.13;6193731;23;20352;-72
2023/08/07 05:29:33;;;;;;;10.82;2.80;;;;;;;12.38;99.98;101336.72;6193441;23;20111;-72
2023/08/07 05:31:59;;;;;;;9.88;3.03;;;;;;;12.38;99.74;101339.34;6168734;23;20442;-72
2023/08/07 05:34:24;;;;;;;9.98;3.35;;;;;;;12.39;99.63;101341.97;6192050;23;20415;-72
2023/08/07 05:36:50;;;;;;;9.40;3.20;;;;;;;12.37;100.00;101343.75;6193811;23;20012;-72
2023/08/07 05:39:15;;;;;;;8.10;2.70;;;;;;;12.37;100.00;101356.00;6193352;23;20066;-72
2023/08/07 05:41:41;;;;;;;6.60;2.85;;;;;;;12.34;100.00;101351.66;6168618;23;20016;-71
2023/08/07 05:44:06;;;;;;;11.43;3.13;;;;;;;12.34;100.00;101359.56;6218509;23;20085;-72
2023/08/07 05:46:32;;;;;;;8.18;2.70;;;;;;;12.34;100.00;101364.81;6192208;23;20058;-72
2023/08/07 05:48:57;;;;;;;10.65;2.80;;;;;;;12.38;100.00;101366.50;6167043;23;20408;-72
2023/08/07 05:51:22;;;;;;;12.05;2.67;;;;;;;12.38;100.00;101365.63;6192734;23;20008;-72
2023/08/07 05:53:48;;;;;;;8.07;3.15;;;;;;;12.38;100.00;101370.88;6193060;23;20020;-71
2023/08/07 05:56:13;;;;;;;9.80;3.30;;;;;;;12.39;100.00;101370.00;6193378;23;20114;-72
2023/08/07 05:58:39;;;;;;;9.10;2.90;;;;;;;12.43;100.00;101371.72;6217369;23;20019;-72
2023/08/07 06:01:05;;;;;;;8.48;2.63;;;;;;;12.40;100.00;101370.00;6217637;23;20031;-72
2023/08/07 06:03:32;;;;;;;9.48;3.28;;;;;;;12.40;100.00;101377.00;6217129;23;20418;-72
2023/08/07 06:05:57;;;;;;;8.55;3.08;;;;;;;12.41;100.00;101371.75;6218577;23;20106;-72
2023/08/07 06:08:23;;;;;;;10.05;3.20;;;;;;;12.40;100.00;101372.63;6192636;23;20016;-72
2023/08/07 06:10:48;;;;;;;10.57;3.17;;;;;;;12.40;100.00;101375.25;6167908;23;20086;-72
2023/08/07 06:13:14;;;;;;;11.93;3.35;;;;;;;12.41;100.00;101377.00;6193290;23;20031;-72
2023/08/07 06:15:39;;;;;;;8.63;2.75;;;;;;;12.45;100.00;101383.06;6167745;23;20062;-72
2023/08/07 06:18:05;;;;;;;12.05;3.22;;;;;;;12.47;100.00;101376.91;6216642;23;20008;-70
2023/08/07 06:20:30;;;;;;;12.45;3.72;;;;;;;12.50;100.00;101380.38;6217964;23;20330;-70
2023/08/07 06:22:56;;;;;;;13.90;3.10;;;;;;;12.50;100.00;101380.38;6191589;23;20012;-69
2023/08/07 06:25:21;;;;;;;15.02;3.50;;;;;;;12.53;100.00;101390.88;6167811;23;20004;-67
2023/08/07 06:27:47;;;;;;;9.65;3.50;;;;;;;12.52;100.00;101384.75;6192417;23;20018;-67
2023/08/07 06:30:13;;;;;;;13.63;3.28;;;;;;;12.54;100.00;101390.00;6192704;23;20283;-68
2023/08/07 06:32:39;;;;;;;13.45;4.28;;;;;;;12.57;100.00;101397.84;6191939;23;20019;-68
2023/08/07 06:35:05;;;;;;;12.35;3.83;;;;;;;12.59;100.00;101393.44;6192922;23;20008;-68
2023/08/07 06:37:31;;;;;;;14.13;3.67;;;;;;;12.64;100.00;101394.25;6166276;23;20015;-68
2023/08/07 06:39:57;;;;;;;15.15;3.85;;;;;;;12.65;100.00;101401.25;6191930;23;20012;-68
2023/08/07 06:42:22;;;;;;;13.85;3.50;;;;;;;12.68;100.00;101403.84;6217790;23;20015;-68
2023/08/07 06:44:48;;;;;;;14.45;4.15;;;;;;;12.71;100.00;101402.94;6167936;23;20452;-67
2023/08/07 06:47:13;;;;;;;13.35;2.97;;;;;;;12.72;99.70;101408.19;6191201;23;20012;-68
2023/08/07 06:49:39;;;;;;;13.65;2.90;;;;;;;12.78;99.58;101401.97;6191929;23;20050;-67
2023/08/07 06:52:05;;;;;;;11.65;3.63;;;;;;;12.85;100.00;101415.94;6167705;23;20066;-68
2023/08/07 06:54:30;;;;;;;9.35;3.22;;;;;;;12.90;99.26;101406.22;6191698;23;20456;-67
2023/08/07 06:56:56;;;;;;;11.60;3.20;;;;;;;12.96;98.72;101408.78;6217166;23;20039;-67
2023/08/07 06:59:21;;;;;;;10.30;2.80;;;;;;;13.00;99.55;101411.38;6167121;23;20099;-68
2023/08/07 07:01:48;;;;;;;11.70;3.25;;;;;;;13.08;99.35;101420.91;6166290;23;20043;-68
2023/08/07 07:04:13;;;;;;;11.57;2.90;;;;;;;13.14;99.14;101426.94;6166883;23;20564;-67
2023/08/07 07:06:38;;;;;;;9.68;3.10;;;;;;;13.22;97.86;101418.97;6217460;23;20158;-70
2023/08/07 07:09:04;;;;;;;9.88;2.42;;;;;;;13.24;96.85;101427.69;6166858;23;20008;-70
2023/08/07 07:11:30;;;;;;;9.25;3.03;;;;;;;13.25;96.90;101429.44;6166904;23;20015;-70
2023/08/07 07:13:55;;;;;;;10.07;2.88;;;;;;;13.31;95.48;101441.66;6167205;23;20016;-69
2023/08/07 07:16:21;;;;;;;11.57;3.08;;;;;;;13.30;94.92;101446.06;6167080;23;20020;-70
2023/08/07 07:18:48;;;;;;;12.05;3.13;;;;;;;13.35;95.70;101456.56;6192114;23;20095;-69
2023/08/07 07:21:13;;;;;;;14.52;4.00;;;;;;;13.38;95.32;101456.50;6216897;23;20073;-70
2023/08/07 07:23:39;;;;;;;7.50;2.70;;;;;;;13.39;94.47;101453.00;6191617;23;20095;-70
2023/08/07 07:26:05;;;;;;;11.35;3.30;;;;;;;13.45;95.98;101457.31;6166598;23;20011;-70
2023/08/07 07:28:31;;;;;;;8.68;2.95;;;;;;;13.52;96.51;101458.97;6165963;23;20016;-70
2023/08/07 07:30:57;;;;;;;8.70;2.85;;;;;;;13.65;97.21;101460.53;6190939;23;20016;-70
2023/08/07 07:33:23;;;;;;;8.77;3.10;;;;;;;13.78;96.52;101463.84;6191097;23;20016;-70
2023/08/07 07:35:48;;;;;;;6.93;2.55;;;;;;;13.76;95.12;101465.59;6216889;23;20008;-69
2023/08/07 07:38:15;;;;;;;7.22;2.40;;;;;;;13.75;95.65;101471.78;6217259;23;20008;-70
2023/08/07 07:40:41;;;;;;;7.50;2.45;;;;;;;13.98;98.25;101478.47;6217059;23;20015;-70
2023/08/07 07:43:06;;;;;;;6.47;2.55;;;;;;;14.19;96.44;101472.88;6216744;23;20008;-70
2023/08/07 07:45:35;;;;;;;9.38;2.60;;;;;;;14.29;94.45;101491.16;6191669;23;20345;-70
2023/08/07 07:48:04;;;;;;;8.23;2.53;;;;;;;14.19;94.38;101493.94;6167638;23;20039;-70
2023/08/07 07:50:29;;;;;;;7.05;2.17;;;;;;;14.09;96.17;101500.22;6217068;23;20027;-70
2023/08/07 07:52:54;;;;;;;7.38;2.65;;;;;;;13.90;97.57;101511.97;6167247;23;20175;-70
2023/08/07 07:55:20;;;;;;;6.80;2.20;;;;;;;13.76;99.41;101520.06;6216939;23;20012;-70
2023/08/07 07:57:46;;;;;;;6.90;2.17;;;;;;;13.70;100.00;101515.75;6166246;23;20012;-70
2023/08/07 08:00:13;;;;;;;6.55;2.03;;;;;;;13.59;100.00;101517.66;6167054;23;20031;-70
2023/08/07 08:02:43;;;;;;;6.05;2.42;;;;;;;13.51;100.00;101521.25;6191270;23;20035;-70
2023/08/07 08:05:10;;;;;;;7.22;2.70;;;;;;;13.46;100.00;101507.31;6216771;23;20349;-70
2023/08/07 08:07:38;;;;;;;7.90;2.58;;;;;;;13.45;100.00;101516.09;6216660;23;20488;-70
2023/08/07 08:10:08;;;;;;;10.05;2.30;;;;;;;13.47;100.00;101516.06;6191429;23;20050;-70
2023/08/07 08:12:34;;;;;;;7.30;2.37;;;;;;;13.54;100.00;101520.38;6167477;23;20078;-70
2023/08/07 08:15:00;;;;;;;8.50;2.90;;;;;;;13.66;100.00;101514.03;6216292;23;20012;-70
2023/08/07 08:17:25;;;;;;;7.78;2.75;;;;;;;13.71;100.00;101517.50;6190361;23;20039;-67
2023/08/07 08:19:51;;;;;;;6.88;2.67;;;;;;;13.88;100.00;101508.47;6166948;23;20346;-68
2023/08/07 08:22:16;;;;;;;7.60;2.78;;;;;;;14.25;100.00;101518.44;6166746;23;20016;-67
2023/08/07 08:24:41;;;;;;;8.65;3.38;;;;;;;14.54;100.00;101510.06;6191922;23;20059;-67
2023/08/07 08:27:07;;;;;;;8.82;2.33;;;;;;;14.77;98.98;101521.97;6191508;23;20012;-67
2023/08/07 08:29:32;;;;;;;9.75;3.08;;;;;;;14.94;97.76;101522.56;6216458;23;20038;-67
2023/08/07 08:31:58;;;;;;;9.57;2.72;;;;;;;15.04;95.11;101521.47;6166557;23;20035;-67
2023/08/07 08:34:25;;;;;;;9.50;2.83;;;;;;;15.04;93.94;101520.59;6165785;23;20008;-67
2023/08/07 08:36:51;;;;;;;9.48;2.65;;;;;;;15.10;93.44;101519.59;6192099;23;20318;-67
2023/08/07 08:39:16;;;;;;;11.20;2.97;;;;;;;15.22;93.59;101527.28;6165771;23;20007;-67
2023/08/07 08:41:46;;;;;;;7.50;2.90;;;;;;;15.27;92.53;101533.34;6218190;23;20115;-67
2023/08/07 08:44:13;;;;;;;7.47;2.55;;;;;;;15.42;93.29;101527.72;6193775;23;20012;-68
2023/08/07 08:46:42;;;;;;;11.15;3.13;;;;;;;15.56;93.03;101530.09;6217788;23;20078;-67
2023/08/07 08:49:09;;;;;;;10.60;3.20;;;;;;;15.73;93.07;101532.38;6217735;23;20094;-67
2023/08/07 08:51:35;;;;;;;9.70;3.00;;;;;;;15.76;90.52;101526.16;6218547;23;20000;-67
2023/08/07 08:54:02;;;;;;;10.15;3.08;;;;;;;15.83;88.03;101534.81;6193723;23;20066;-67
2023/08/07 08:56:29;;;;;;;11.30;2.83;;;;;;;15.90;87.88;101545.25;6193834;23;20011;-67
2023/08/07 08:58:55;;;;;;;8.00;2.63;;;;;;;15.90;86.42;101537.31;6193419;23;20012;-67
2023/08/07 09:01:21;;;;;;;11.82;3.00;;;;;;;15.77;83.55;101541.06;6192362;23;20018;-68
2023/08/07 09:03:47;;;;;;;10.50;2.80;;;;;;;15.65;79.18;101539.59;6217093;23;20019;-68
2023/08/07 09:06:13;;;;;;;8.38;2.83;;;;;;;15.73;79.40;101547.34;6167918;23;20012;-67
2023/08/07 09:08:43;;;;;;;9.60;2.78;;;;;;;15.84;81.54;101540.06;6193594;23;20012;-68
2023/08/07 09:11:10;;;;;;;9.20;2.53;;;;;;;15.90;78.83;101542.59;6218599;23;20019;-67
2023/08/07 09:13:37;;;;;;;8.40;2.55;;;;;;;15.98;79.29;101542.41;6218342;23;20254;-67
2023/08/07 09:16:04;;;;;;;10.23;2.50;;;;;;;16.04;77.88;101546.69;6216133;23;20328;-67
2023/08/07 09:18:29;;;;;;;9.75;3.03;;;;;;;16.10;79.68;101550.06;6217292;23;20050;-68
2023/08/07 09:20:57;;;;;;;8.85;2.60;;;;;;;16.18;77.87;101555.16;6218274;23;20453;-68
2023/08/07 09:23:24;;;;;;;9.20;2.65;;;;;;;16.23;78.53;101545.34;6193547;23;20468;-70
2023/08/07 09:25:59;;;;;;;6.93;2.65;;;;;;;16.26;76.99;101544.38;6192918;23;20035;-70
2023/08/07 09:28:24;;;;;;;6.40;2.72;;;;;;;16.11;76.09;101541.22;6192951;23;20085;-69
2023/08/07 09:30:52;;;;;;;7.55;2.95;;;;;;;16.24;77.01;101549.72;6168111;23;20032;-69
2023/08/07 09:33:26;;;;;;;10.15;2.60;;;;;;;16.18;72.41;101543.72;6217686;23;20019;-70
2023/08/07 09:35:53;;;;;;;8.98;3.03;;;;;;;16.25;73.61;101555.91;6218301;23;20341;-70
2023/08/07 09:38:18;;;;;;;8.98;3.03;;;;;;;16.19;75.21;101562.19;6193131;23;20016;-70
2023/08/07 09:40:43;;;;;;;8.00;2.28;;;;;;;16.17;74.44;101565.78;6168380;23;20090;-70
2023/08/07 09:43:10;;;;;;;7.32;2.50;;;;;;;16.06;73.85;101563.38;6168304;23;20034;-69
2023/08/07 09:45:39;;;;;;;9.75;3.33;;;;;;;15.94;73.51;101565.38;6192653;23;20008;-69
2023/08/07 09:48:11;;;;;;;7.50;2.22;;;;;;;15.87;73.38;101569.06;6192809;23;20879;-69
2023/08/07 09:50:36;;;;;;;8.30;2.40;;;;;;;15.93;69.33;101560.13;6218202;23;20007;-70
2023/08/07 09:53:02;;;;;;;7.82;2.15;;;;;;;16.01;66.56;101562.63;6193222;23;20008;-69
2023/08/07 09:55:27;;;;;;;6.28;1.92;;;;;;;16.10;68.31;101562.41;6218048;23;20012;-70
2023/08/07 09:57:53;;;;;;;3.75;1.70;;;;;;;16.12;65.67;101557.97;6217923;23;20036;-70
2023/08/07 10:00:20;;;;;;;7.07;2.25;;;;;;;16.19;66.13;101561.31;6192880;23;20510;-70
2023/08/07 10:02:50;;;;;;;6.90;2.25;;;;;;;16.30;68.07;101567.22;6167518;23;20016;-70
2023/08/07 10:05:16;;;;;;;6.93;1.90;;;;;;;16.43;69.80;101568.69;6217029;23;20039;-69
2023/08/07 10:07:42;;;;;;;7.05;2.22;;;;;;;16.54;69.20;101576.31;6167784;23;20107;-70
2023/08/07 10:10:09;;;;;;;7.30;2.25;;;;;;;16.55;64.84;101574.53;6192440;23;20103;-69
2023/08/07 10:12:36;;;;;;;4.30;2.00;;;;;;;16.53;63.81;101571.94;6193271;23;20074;-70
2023/08/07 10:15:02;;;;;;;5.10;1.60;;;;;;;16.40;62.26;101567.88;6192961;23;20008;-69
2023/08/07 10:17:29;;;;;;;6.93;2.10;;;;;;;16.51;65.71;101575.56;6217252;23;20019;-69
2023/08/07 10:19:56;;;;;;;5.25;1.85;;;;;;;16.52;64.99;101585.19;6192179;23;20046;-70
2023/08/07 10:22:28;;;;;;;4.43;2.50;;;;;;;16.58;66.06;101580.63;6193286;23;20039;-67
2023/08/07 10:24:57;;;;;;;6.55;1.80;;;;;;;16.70;67.19;101581.25;6217853;23;19999;-67
2023/08/07 10:27:24;;;;;;;7.95;3.03;;;;;;;16.79;68.79;101579.22;6217895;23;20099;-67
2023/08/07 10:29:51;;;;;;;9.82;2.30;;;;;;;16.80;65.81;101580.94;6192747;23;20390;-68
2023/08/07 10:32:19;;;;;;;5.90;1.83;;;;;;;16.72;60.57;101592.63;6191985;23;20099;-69
2023/08/07 10:34:51;;;;;;;5.95;1.80;;;;;;;16.82;61.01;101594.13;6216667;23;20008;-68
2023/08/07 10:37:37;;;;;;;4.60;1.85;;;;;;;16.90;64.16;101592.19;6167719;23;20138;-68
2023/08/07 10:40:04;;;;;;;4.47;1.75;;;;;;;16.85;62.41;101588.78;6244151;23;20000;-67
2023/08/07 10:43:17;;;;;;;4.53;1.55;;;;;;;17.02;65.50;101584.84;6216505;23;20012;-67
2023/08/07 10:45:42;;;;;;;6.85;1.67;;;;;;;17.07;60.44;101591.75;6096882;23;20092;-67
2023/08/07 10:48:11;;;;;;;5.15;1.85;;;;;;;17.12;60.64;101596.94;6179690;23;20100;-67
2023/08/07 10:50:51;;;;;;;4.60;1.80;;;;;;;17.07;59.42;101585.59;6217208;23;20441;-68
2023/08/07 10:53:37;;;;;;;6.47;2.42;;;;;;;17.17;63.00;101591.50;6217391;23;20011;-67
2023/08/07 10:56:14;;;;;;;8.98;1.90;;;;;;;17.30;63.07;101596.41;6217129;23;20371;-67
2023/08/07 10:58:41;;;;;;;5.20;2.22;;;;;;;17.28;59.88;101605.31;6217332;23;20139;-68
2023/08/07 11:01:35;;;;;;;8.40;2.38;;;;;;;17.31;61.11;101603.47;6214828;23;20005;-67
2023/08/07 11:04:06;;;;;;;5.32;1.60;;;;;;;17.33;58.54;101610.50;6215905;23;20007;-67
2023/08/07 11:06:36;;;;;;;7.32;1.83;;;;;;;17.44;59.78;101609.28;6192163;23;20012;-68
2023/08/07 11:09:04;;;;;;;7.13;2.05;;;;;;;17.48;59.91;101605.66;6217165;23;20004;-67
2023/08/07 11:11:39;;;;;;;5.40;1.80;;;;;;;17.44;56.80;101604.00;6217103;23;20430;-68
2023/08/07 11:14:08;;;;;;;6.47;1.90;;;;;;;17.27;55.48;101609.75;6217178;23;20004;-67
2023/08/07 11:16:34;;;;;;;5.47;2.08;;;;;;;17.25;57.73;101608.06;6216789;23;20444;-67
2023/08/07 11:19:00;;;;;;;5.88;1.88;;;;;;;17.39;58.12;101608.53;6216057;23;20008;-67
2023/08/07 11:21:26;;;;;;;6.03;1.85;;;;;;;17.37;57.61;101613.03;6217197;23;20087;-68
2023/08/07 11:23:52;;;;;;;3.55;1.60;;;;;;;17.45;58.43;101607.50;6217163;23;20379;-67
2023/08/07 11:26:21;;;;;;;5.45;2.00;;;;;;;17.53;57.50;101607.28;6191991;23;20445;-68
2023/08/07 11:28:47;;;;;;;4.30;2.00;;;;;;;17.52;59.13;101606.41;6216802;23;20096;-67
2023/08/07 11:31:13;;;;;;;3.95;1.80;;;;;;;17.56;59.53;101613.38;6191015;23;20434;-68
2023/08/07 11:33:40;;;;;;;7.05;2.00;;;;;;;17.46;58.08;101607.44;6191130;23;20087;-67
2023/08/07 11:36:13;;;;;;;9.57;2.00;;;;;;;17.45;57.74;101620.75;6217313;23;20444;-68
2023/08/07 11:38:44;;;;;;;5.53;1.90;;;;;;;17.52;58.52;101611.72;6216767;23;20008;-67
2023/08/07 11:41:11;;;;;;;4.65;1.80;;;;;;;17.62;57.81;101614.97;6216713;23;20091;-68
2023/08/07 11:43:38;;;;;;;5.03;1.70;;;;;;;17.58;54.40;101622.13;6217210;23;20148;-67
2023/08/07 11:46:05;;;;;;;4.80;1.60;;;;;;;17.66;55.87;101624.56;6191799;23;20039;-66
2023/08/07 11:48:33;;;;;;;3.40;1.65;;;;;;;17.67;56.25;101621.88;6216008;23;20166;-68
2023/08/07 11:51:00;;;;;;;8.07;1.55;;;;;;;17.69;54.31;101615.69;6216996;23;20453;-68
2023/08/07 11:53:30;;;;;;;5.07;1.70;;;;;;;17.80;57.53;101605.59;6217145;23;20073;-67
2023/08/07 11:56:04;;;;;;;4.30;1.58;;;;;;;17.78;55.54;101610.09;6192782;23;20015;-68
2023/08/07 11:58:40;;;;;;;5.65;1.52;;;;;;;17.81;55.64;101612.63;6217260;23;20011;-67
2023/08/07 12:01:10;;;;;;;3.92;1.52;;;;;;;17.76;54.73;101612.78;6216407;23;20012;-67
2023/08/07 12:03:40;;;;;;;4.53;1.63;;;;;;;17.76;53.70;101609.28;6216145;23;20006;-68
2023/08/07 12:06:06;;;;;;;;;;;;;;;17.94;56.50;101608.75;6169059;23;20012;-68
2023/08/07 12:08:34;;;;;;;3.20;1.38;;;;;;;17.84;51.57;101609.91;6217254;23;19915;-67
2023/08/07 12:11:10;;;;;;;5.40;1.70;;;;;;;17.83;50.96;101610.84;6216795;23;20016;-67